sensor_id;sensor_type;location;lat;lon;timestamp;P1;durP1;ratioP1;P2;durP2;ratioP2
21198;SDS011;10757;51.038;3.712;2022-09-16T00:01:50;7.63;;;1.42;;
21198;SDS011;10757;51.038;3.712;2022-09-16T00:04:16;5.72;;;1.33;;
21198;SDS011;10757;51.038;3.712;2022-09-16T00:06:42;6.38;;;1.85;;
21198;SDS011;10757;51.038;3.712;2022-09-16T00:09:08;7.30;;;2.70;;
21198;SDS011;10757;51.038;3.712;2022-09-16T00:11:34;4.60;;;1.17;;
21198;SDS011;10757;51.038;3.712;2022-09-16T00:14:00;5.07;;;1.35;;
21198;SDS011;10757;51.038;3.712;2022-09-16T00:16:27;7.22;;;1.38;;
21198;SDS011;10757;51.038;3.712;2022-09-16T00:18:57;8.23;;;1.20;;
21198;SDS011;10757;51.038;3.712;2022-09-16T00:21:25;9.13;;;1.48;;
21198;SDS011;10757;51.038;3.712;2022-09-16T00:23:51;4.72;;;1.00;;
21198;SDS011;10757;51.038;3.712;2022-09-16T00:26:17;11.35;;;1.52;;
21198;SDS011;10757;51.038;3.712;2022-09-16T00:28:48;3.47;;;1.10;;
21198;SDS011;10757;51.038;3.712;2022-09-16T00:31:15;4.93;;;1.42;;
21198;SDS011;10757;51.038;3.712;2022-09-16T00:33:41;6.38;;;1.23;;
21198;SDS011;10757;51.038;3.712;2022-09-16T00:36:08;5.60;;;1.35;;
21198;SDS011;10757;51.038;3.712;2022-09-16T00:38:40;9.43;;;1.60;;
21198;SDS011;10757;51.038;3.712;2022-09-16T00:41:07;8.90;;;1.60;;
21198;SDS011;10757;51.038;3.712;2022-09-16T00:44:00;7.18;;;1.60;;
21198;SDS011;10757;51.038;3.712;2022-09-16T00:46:45;9.65;;;1.45;;
21198;SDS011;10757;51.038;3.712;2022-09-16T00:49:14;5.75;;;1.40;;
21198;SDS011;10757;51.038;3.712;2022-09-16T00:51:44;5.97;;;1.33;;
21198;SDS011;10757;51.038;3.712;2022-09-16T00:54:12;8.27;;;1.17;;
21198;SDS011;10757;51.038;3.712;2022-09-16T00:56:41;4.82;;;1.20;;
21198;SDS011;10757;51.038;3.712;2022-09-16T00:59:14;10.10;;;2.38;;
21198;SDS011;10757;51.038;3.712;2022-09-16T01:01:48;6.00;;;1.80;;
21198;SDS011;10757;51.038;3.712;2022-09-16T01:04:18;7.95;;;1.60;;
21198;SDS011;10757;51.038;3.712;2022-09-16T01:06:53;7.68;;;1.50;;
21198;SDS011;10757;51.038;3.712;2022-09-16T01:09:21;11.40;;;1.30;;
21198;SDS011;10757;51.038;3.712;2022-09-16T01:11:47;6.55;;;1.30;;
21198;SDS011;10757;51.038;3.712;2022-09-16T01:14:13;7.53;;;1.58;;
21198;SDS011;10757;51.038;3.712;2022-09-16T01:17:01;7.80;;;1.40;;
21198;SDS011;10757;51.038;3.712;2022-09-16T01:25:06;5.75;;;1.58;;
21198;SDS011;10757;51.038;3.712;2022-09-16T01:36:15;7.78;;;1.63;;
21198;SDS011;10757;51.038;3.712;2022-09-16T01:44:11;8.55;;;1.52;;
21198;SDS011;10757;51.038;3.712;2022-09-16T01:49:15;4.57;;;1.38;;
21198;SDS011;10757;51.038;3.712;2022-09-16T01:52:05;5.22;;;1.27;;
21198;SDS011;10757;51.038;3.712;2022-09-16T01:55:13;10.07;;;1.20;;
21198;SDS011;10757;51.038;3.712;2022-09-16T01:57:48;4.13;;;1.20;;
21198;SDS011;10757;51.038;3.712;2022-09-16T02:00:19;6.75;;;1.30;;
21198;SDS011;10757;51.038;3.712;2022-09-16T02:05:18;4.57;;;1.10;;
21198;SDS011;10757;51.038;3.712;2022-09-16T02:07:54;6.63;;;1.38;;
21198;SDS011;10757;51.038;3.712;2022-09-16T02:10:24;10.93;;;1.85;;
21198;SDS011;10757;51.038;3.712;2022-09-16T02:13:02;4.25;;;1.20;;
21198;SDS011;10757;51.038;3.712;2022-09-16T02:15:32;9.65;;;1.50;;
21198;SDS011;10757;51.038;3.712;2022-09-16T02:18:04;4.00;;;1.17;;
21198;SDS011;10757;51.038;3.712;2022-09-16T02:20:35;5.68;;;1.38;;
21198;SDS011;10757;51.038;3.712;2022-09-16T02:23:08;5.80;;;1.40;;
21198;SDS011;10757;51.038;3.712;2022-09-16T02:25:46;4.97;;;1.25;;
21198;SDS011;10757;51.038;3.712;2022-09-16T02:28:19;7.55;;;1.35;;
21198;SDS011;10757;51.038;3.712;2022-09-16T02:30:51;4.63;;;1.40;;
21198;SDS011;10757;51.038;3.712;2022-09-16T02:33:19;6.90;;;1.63;;
21198;SDS011;10757;51.038;3.712;2022-09-16T02:35:49;6.00;;;1.40;;
21198;SDS011;10757;51.038;3.712;2022-09-16T02:40:51;8.55;;;1.30;;
21198;SDS011;10757;51.038;3.712;2022-09-16T02:43:20;6.68;;;1.27;;
21198;SDS011;10757;51.038;3.712;2022-09-16T02:46:08;5.70;;;1.60;;
21198;SDS011;10757;51.038;3.712;2022-09-16T02:54:30;5.93;;;1.38;;
21198;SDS011;10757;51.038;3.712;2022-09-16T02:57:18;7.60;;;1.70;;
21198;SDS011;10757;51.038;3.712;2022-09-16T02:59:44;12.85;;;1.50;;
21198;SDS011;10757;51.038;3.712;2022-09-16T03:02:10;11.80;;;1.50;;
21198;SDS011;10757;51.038;3.712;2022-09-16T03:04:36;6.70;;;1.77;;
21198;SDS011;10757;51.038;3.712;2022-09-16T03:07:03;12.20;;;1.85;;
21198;SDS011;10757;51.038;3.712;2022-09-16T03:09:32;12.32;;;2.30;;
21198;SDS011;10757;51.038;3.712;2022-09-16T03:22:44;29.77;;;11.25;;
21198;SDS011;10757;51.038;3.712;2022-09-16T03:28:23;21.27;;;7.85;;
21198;SDS011;10757;51.038;3.712;2022-09-16T03:33:24;23.65;;;9.50;;
21198;SDS011;10757;51.038;3.712;2022-09-16T03:35:56;7.07;;;3.15;;
21198;SDS011;10757;51.038;3.712;2022-09-16T03:38:25;15.32;;;4.85;;
21198;SDS011;10757;51.038;3.712;2022-09-16T03:40:52;13.57;;;6.00;;
21198;SDS011;10757;51.038;3.712;2022-09-16T03:43:19;15.32;;;5.85;;
21198;SDS011;10757;51.038;3.712;2022-09-16T03:45:45;13.18;;;3.63;;
21198;SDS011;10757;51.038;3.712;2022-09-16T03:48:11;14.13;;;4.80;;
21198;SDS011;10757;51.038;3.712;2022-09-16T03:50:38;16.48;;;4.82;;
21198;SDS011;10757;51.038;3.712;2022-09-16T03:53:04;23.35;;;8.27;;
21198;SDS011;10757;51.038;3.712;2022-09-16T03:55:29;10.35;;;2.15;;
21198;SDS011;10757;51.038;3.712;2022-09-16T03:57:55;7.45;;;1.60;;
21198;SDS011;10757;51.038;3.712;2022-09-16T04:00:21;6.65;;;1.52;;
21198;SDS011;10757;51.038;3.712;2022-09-16T04:02:47;6.45;;;1.30;;
21198;SDS011;10757;51.038;3.712;2022-09-16T04:05:13;10.02;;;2.03;;
21198;SDS011;10757;51.038;3.712;2022-09-16T04:07:39;6.57;;;1.40;;
21198;SDS011;10757;51.038;3.712;2022-09-16T04:10:04;6.68;;;1.35;;
21198;SDS011;10757;51.038;3.712;2022-09-16T04:12:31;8.00;;;1.40;;
21198;SDS011;10757;51.038;3.712;2022-09-16T04:14:57;8.85;;;1.95;;
21198;SDS011;10757;51.038;3.712;2022-09-16T04:17:23;7.57;;;1.58;;
21198;SDS011;10757;51.038;3.712;2022-09-16T04:19:49;3.63;;;0.90;;
21198;SDS011;10757;51.038;3.712;2022-09-16T04:22:15;5.10;;;0.98;;
21198;SDS011;10757;51.038;3.712;2022-09-16T04:24:41;3.05;;;0.90;;
21198;SDS011;10757;51.038;3.712;2022-09-16T04:27:06;6.30;;;0.80;;
21198;SDS011;10757;51.038;3.712;2022-09-16T04:29:32;3.47;;;0.88;;
21198;SDS011;10757;51.038;3.712;2022-09-16T04:31:58;2.25;;;0.57;;
21198;SDS011;10757;51.038;3.712;2022-09-16T04:34:23;2.13;;;0.60;;
21198;SDS011;10757;51.038;3.712;2022-09-16T04:36:49;4.55;;;0.85;;
21198;SDS011;10757;51.038;3.712;2022-09-16T04:39:15;4.60;;;0.90;;
21198;SDS011;10757;51.038;3.712;2022-09-16T04:41:40;12.27;;;4.50;;
21198;SDS011;10757;51.038;3.712;2022-09-16T04:44:06;8.57;;;2.65;;
21198;SDS011;10757;51.038;3.712;2022-09-16T04:46:34;9.07;;;4.15;;
21198;SDS011;10757;51.038;3.712;2022-09-16T04:48:59;4.47;;;1.27;;
21198;SDS011;10757;51.038;3.712;2022-09-16T04:51:26;7.63;;;1.17;;
21198;SDS011;10757;51.038;3.712;2022-09-16T04:53:53;5.55;;;1.23;;
21198;SDS011;10757;51.038;3.712;2022-09-16T04:56:23;16.85;;;5.25;;
21198;SDS011;10757;51.038;3.712;2022-09-16T04:58:52;12.60;;;5.05;;
21198;SDS011;10757;51.038;3.712;2022-09-16T05:01:20;12.27;;;3.38;;
21198;SDS011;10757;51.038;3.712;2022-09-16T05:03:49;21.67;;;8.38;;
21198;SDS011;10757;51.038;3.712;2022-09-16T05:06:22;14.68;;;5.35;;
21198;SDS011;10757;51.038;3.712;2022-09-16T05:08:52;18.65;;;6.88;;
21198;SDS011;10757;51.038;3.712;2022-09-16T05:11:21;21.77;;;8.13;;
21198;SDS011;10757;51.038;3.712;2022-09-16T05:13:48;11.65;;;4.53;;
21198;SDS011;10757;51.038;3.712;2022-09-16T05:16:15;20.15;;;6.65;;
21198;SDS011;10757;51.038;3.712;2022-09-16T05:18:42;10.02;;;2.80;;
21198;SDS011;10757;51.038;3.712;2022-09-16T05:21:12;8.30;;;2.95;;
21198;SDS011;10757;51.038;3.712;2022-09-16T05:23:40;21.77;;;7.20;;
21198;SDS011;10757;51.038;3.712;2022-09-16T05:26:10;21.15;;;6.60;;
21198;SDS011;10757;51.038;3.712;2022-09-16T05:31:17;15.27;;;5.32;;
21198;SDS011;10757;51.038;3.712;2022-09-16T05:33:56;15.07;;;5.40;;
21198;SDS011;10757;51.038;3.712;2022-09-16T05:36:27;14.63;;;4.57;;
21198;SDS011;10757;51.038;3.712;2022-09-16T05:38:54;9.05;;;2.22;;
21198;SDS011;10757;51.038;3.712;2022-09-16T05:41:20;8.88;;;1.80;;
21198;SDS011;10757;51.038;3.712;2022-09-16T05:43:47;7.18;;;1.70;;
21198;SDS011;10757;51.038;3.712;2022-09-16T05:46:17;14.70;;;3.80;;
21198;SDS011;10757;51.038;3.712;2022-09-16T05:48:45;19.15;;;6.75;;
21198;SDS011;10757;51.038;3.712;2022-09-16T05:51:12;12.27;;;4.20;;
21198;SDS011;10757;51.038;3.712;2022-09-16T05:53:40;9.63;;;2.30;;
21198;SDS011;10757;51.038;3.712;2022-09-16T05:56:07;16.63;;;6.50;;
21198;SDS011;10757;51.038;3.712;2022-09-16T05:58:37;18.23;;;6.20;;
21198;SDS011;10757;51.038;3.712;2022-09-16T06:03:30;11.32;;;1.80;;
21198;SDS011;10757;51.038;3.712;2022-09-16T06:06:04;8.00;;;1.27;;
21198;SDS011;10757;51.038;3.712;2022-09-16T06:08:32;11.80;;;3.38;;
21198;SDS011;10757;51.038;3.712;2022-09-16T06:11:00;11.30;;;2.35;;
21198;SDS011;10757;51.038;3.712;2022-09-16T06:13:26;14.20;;;3.75;;
21198;SDS011;10757;51.038;3.712;2022-09-16T06:15:52;5.78;;;1.13;;
21198;SDS011;10757;51.038;3.712;2022-09-16T06:18:19;6.38;;;1.30;;
21198;SDS011;10757;51.038;3.712;2022-09-16T06:20:46;6.68;;;1.58;;
21198;SDS011;10757;51.038;3.712;2022-09-16T06:23:12;8.07;;;1.60;;
21198;SDS011;10757;51.038;3.712;2022-09-16T06:25:38;9.48;;;1.20;;
21198;SDS011;10757;51.038;3.712;2022-09-16T06:28:03;8.18;;;1.98;;
21198;SDS011;10757;51.038;3.712;2022-09-16T06:30:29;11.30;;;3.10;;
21198;SDS011;10757;51.038;3.712;2022-09-16T06:32:55;21.23;;;7.97;;
21198;SDS011;10757;51.038;3.712;2022-09-16T06:35:21;9.98;;;3.28;;
21198;SDS011;10757;51.038;3.712;2022-09-16T06:37:46;7.05;;;1.50;;
21198;SDS011;10757;51.038;3.712;2022-09-16T06:40:13;4.53;;;1.20;;
21198;SDS011;10757;51.038;3.712;2022-09-16T06:42:39;5.28;;;0.90;;
21198;SDS011;10757;51.038;3.712;2022-09-16T06:45:05;6.72;;;1.40;;
21198;SDS011;10757;51.038;3.712;2022-09-16T06:47:31;7.05;;;1.40;;
21198;SDS011;10757;51.038;3.712;2022-09-16T06:49:57;10.60;;;1.40;;
21198;SDS011;10757;51.038;3.712;2022-09-16T06:52:24;6.38;;;1.83;;
21198;SDS011;10757;51.038;3.712;2022-09-16T06:54:50;14.27;;;3.20;;
21198;SDS011;10757;51.038;3.712;2022-09-16T06:57:16;26.58;;;8.77;;
21198;SDS011;10757;51.038;3.712;2022-09-16T06:59:44;16.90;;;5.05;;
21198;SDS011;10757;51.038;3.712;2022-09-16T07:02:10;22.10;;;7.47;;
21198;SDS011;10757;51.038;3.712;2022-09-16T07:04:36;7.25;;;2.08;;
21198;SDS011;10757;51.038;3.712;2022-09-16T07:07:02;12.88;;;3.28;;
21198;SDS011;10757;51.038;3.712;2022-09-16T07:09:29;12.93;;;2.88;;
21198;SDS011;10757;51.038;3.712;2022-09-16T07:11:56;8.43;;;3.10;;
21198;SDS011;10757;51.038;3.712;2022-09-16T07:14:23;13.40;;;2.13;;
21198;SDS011;10757;51.038;3.712;2022-09-16T07:16:52;13.90;;;3.60;;
21198;SDS011;10757;51.038;3.712;2022-09-16T07:19:18;9.45;;;2.60;;
21198;SDS011;10757;51.038;3.712;2022-09-16T07:21:47;9.68;;;2.40;;
21198;SDS011;10757;51.038;3.712;2022-09-16T07:24:13;10.27;;;3.60;;
21198;SDS011;10757;51.038;3.712;2022-09-16T07:26:39;26.90;;;10.98;;
21198;SDS011;10757;51.038;3.712;2022-09-16T07:29:11;7.20;;;2.00;;
21198;SDS011;10757;51.038;3.712;2022-09-16T07:31:38;8.73;;;1.98;;
21198;SDS011;10757;51.038;3.712;2022-09-16T07:34:04;12.45;;;2.30;;
21198;SDS011;10757;51.038;3.712;2022-09-16T07:36:33;28.60;;;9.50;;
21198;SDS011;10757;51.038;3.712;2022-09-16T07:39:27;16.02;;;5.35;;
21198;SDS011;10757;51.038;3.712;2022-09-16T07:41:53;15.63;;;6.22;;
21198;SDS011;10757;51.038;3.712;2022-09-16T07:44:19;13.70;;;7.68;;
21198;SDS011;10757;51.038;3.712;2022-09-16T07:46:45;19.45;;;6.53;;
21198;SDS011;10757;51.038;3.712;2022-09-16T07:49:13;8.65;;;2.42;;
21198;SDS011;10757;51.038;3.712;2022-09-16T07:51:42;6.03;;;1.67;;
21198;SDS011;10757;51.038;3.712;2022-09-16T07:54:10;8.68;;;2.65;;
21198;SDS011;10757;51.038;3.712;2022-09-16T07:56:37;18.17;;;5.88;;
21198;SDS011;10757;51.038;3.712;2022-09-16T07:59:05;11.13;;;2.70;;
21198;SDS011;10757;51.038;3.712;2022-09-16T08:01:32;5.95;;;1.30;;
21198;SDS011;10757;51.038;3.712;2022-09-16T08:03:59;5.60;;;1.38;;
21198;SDS011;10757;51.038;3.712;2022-09-16T08:06:26;8.57;;;1.35;;
21198;SDS011;10757;51.038;3.712;2022-09-16T08:08:54;14.00;;;4.22;;
21198;SDS011;10757;51.038;3.712;2022-09-16T08:11:23;14.70;;;3.72;;
21198;SDS011;10757;51.038;3.712;2022-09-16T08:13:50;13.73;;;5.75;;
21198;SDS011;10757;51.038;3.712;2022-09-16T08:16:17;10.57;;;3.75;;
21198;SDS011;10757;51.038;3.712;2022-09-16T08:18:45;15.57;;;6.25;;
21198;SDS011;10757;51.038;3.712;2022-09-16T08:21:17;7.88;;;3.17;;
21198;SDS011;10757;51.038;3.712;2022-09-16T08:23:45;16.70;;;5.90;;
21198;SDS011;10757;51.038;3.712;2022-09-16T08:26:11;13.98;;;4.47;;
21198;SDS011;10757;51.038;3.712;2022-09-16T08:28:38;9.73;;;3.00;;
21198;SDS011;10757;51.038;3.712;2022-09-16T08:31:06;11.73;;;4.72;;
21198;SDS011;10757;51.038;3.712;2022-09-16T08:33:32;8.48;;;1.30;;
21198;SDS011;10757;51.038;3.712;2022-09-16T08:35:59;11.68;;;4.25;;
21198;SDS011;10757;51.038;3.712;2022-09-16T08:38:29;4.32;;;1.10;;
21198;SDS011;10757;51.038;3.712;2022-09-16T08:41:16;3.97;;;0.80;;
21198;SDS011;10757;51.038;3.712;2022-09-16T08:46:49;3.63;;;0.73;;
21198;SDS011;10757;51.038;3.712;2022-09-16T08:49:30;5.63;;;1.08;;
21198;SDS011;10757;51.038;3.712;2022-09-16T08:52:04;3.30;;;0.70;;
21198;SDS011;10757;51.038;3.712;2022-09-16T08:54:55;10.20;;;1.00;;
21198;SDS011;10757;51.038;3.712;2022-09-16T08:57:25;4.10;;;0.73;;
21198;SDS011;10757;51.038;3.712;2022-09-16T08:59:56;8.43;;;1.48;;
21198;SDS011;10757;51.038;3.712;2022-09-16T09:02:37;3.13;;;0.60;;
21198;SDS011;10757;51.038;3.712;2022-09-16T09:05:31;1.95;;;0.63;;
21198;SDS011;10757;51.038;3.712;2022-09-16T09:11:27;6.70;;;1.13;;
21198;SDS011;10757;51.038;3.712;2022-09-16T09:23:25;3.13;;;0.88;;
21198;SDS011;10757;51.038;3.712;2022-09-16T09:26:08;6.38;;;2.00;;
21198;SDS011;10757;51.038;3.712;2022-09-16T09:29:03;10.55;;;3.50;;
21198;SDS011;10757;51.038;3.712;2022-09-16T09:42:08;7.28;;;2.17;;
21198;SDS011;10757;51.038;3.712;2022-09-16T09:44:50;7.07;;;1.02;;
21198;SDS011;10757;51.038;3.712;2022-09-16T09:47:32;3.63;;;0.75;;
21198;SDS011;10757;51.038;3.712;2022-09-16T09:50:28;8.02;;;3.35;;
21198;SDS011;10757;51.038;3.712;2022-09-16T09:55:37;8.98;;;3.22;;
21198;SDS011;10757;51.038;3.712;2022-09-16T09:58:23;10.23;;;3.28;;
21198;SDS011;10757;51.038;3.712;2022-09-16T10:01:05;5.88;;;1.08;;
21198;SDS011;10757;51.038;3.712;2022-09-16T10:03:32;10.13;;;1.20;;
21198;SDS011;10757;51.038;3.712;2022-09-16T10:05:58;11.43;;;2.63;;
21198;SDS011;10757;51.038;3.712;2022-09-16T10:08:31;8.80;;;3.67;;
21198;SDS011;10757;51.038;3.712;2022-09-16T10:11:20;16.60;;;5.82;;
21198;SDS011;10757;51.038;3.712;2022-09-16T10:13:58;8.95;;;3.33;;
21198;SDS011;10757;51.038;3.712;2022-09-16T10:16:32;3.95;;;1.08;;
21198;SDS011;10757;51.038;3.712;2022-09-16T10:19:04;8.85;;;2.47;;
21198;SDS011;10757;51.038;3.712;2022-09-16T10:21:49;15.30;;;4.03;;
21198;SDS011;10757;51.038;3.712;2022-09-16T10:24:31;16.92;;;5.82;;
21198;SDS011;10757;51.038;3.712;2022-09-16T10:26:59;10.95;;;3.70;;
21198;SDS011;10757;51.038;3.712;2022-09-16T10:29:26;11.27;;;3.72;;
21198;SDS011;10757;51.038;3.712;2022-09-16T10:31:52;6.07;;;1.80;;
21198;SDS011;10757;51.038;3.712;2022-09-16T10:36:56;6.28;;;1.48;;
21198;SDS011;10757;51.038;3.712;2022-09-16T10:39:37;9.13;;;2.63;;
21198;SDS011;10757;51.038;3.712;2022-09-16T10:45:47;7.88;;;2.22;;
21198;SDS011;10757;51.038;3.712;2022-09-16T10:47:50;6.00;;;2.20;;
21198;SDS011;10757;51.038;3.712;2022-09-16T10:50:19;5.13;;;1.13;;
21198;SDS011;10757;51.038;3.712;2022-09-16T10:52:45;8.20;;;2.10;;
21198;SDS011;10757;51.038;3.712;2022-09-16T10:57:44;9.80;;;1.00;;
21198;SDS011;10757;51.038;3.712;2022-09-16T11:05:42;6.60;;;1.30;;
21198;SDS011;10757;51.038;3.712;2022-09-16T11:08:39;6.22;;;1.20;;
21198;SDS011;10757;51.038;3.712;2022-09-16T11:14:42;6.90;;;1.25;;
21198;SDS011;10757;51.038;3.712;2022-09-16T11:23:12;11.02;;;2.58;;
21198;SDS011;10757;51.038;3.712;2022-09-16T11:43:52;7.70;;;1.20;;
21198;SDS011;10757;51.038;3.712;2022-09-16T11:46:31;8.25;;;2.65;;
21198;SDS011;10757;51.038;3.712;2022-09-16T11:49:14;8.45;;;1.30;;
21198;SDS011;10757;51.038;3.712;2022-09-16T11:59:08;7.45;;;1.17;;
21198;SDS011;10757;51.038;3.712;2022-09-16T12:06:19;3.63;;;1.17;;
21198;SDS011;10757;51.038;3.712;2022-09-16T12:14:13;7.93;;;1.10;;
21198;SDS011;10757;51.038;3.712;2022-09-16T12:19:14;13.25;;;1.80;;
21198;SDS011;10757;51.038;3.712;2022-09-16T12:22:07;10.15;;;1.63;;
21198;SDS011;10757;51.038;3.712;2022-09-16T12:24:42;15.15;;;1.75;;
21198;SDS011;10757;51.038;3.712;2022-09-16T12:27:31;5.60;;;1.20;;
21198;SDS011;10757;51.038;3.712;2022-09-16T12:35:35;10.25;;;1.15;;
21198;SDS011;10757;51.038;3.712;2022-09-16T12:38:04;5.15;;;0.98;;
21198;SDS011;10757;51.038;3.712;2022-09-16T12:59:45;5.63;;;0.88;;
21198;SDS011;10757;51.038;3.712;2022-09-16T13:02:26;4.25;;;1.25;;
21198;SDS011;10757;51.038;3.712;2022-09-16T13:04:57;4.20;;;0.90;;
21198;SDS011;10757;51.038;3.712;2022-09-16T13:07:35;5.30;;;0.95;;
21198;SDS011;10757;51.038;3.712;2022-09-16T13:12:41;6.18;;;0.90;;
21198;SDS011;10757;51.038;3.712;2022-09-16T13:15:32;6.07;;;1.23;;
21198;SDS011;10757;51.038;3.712;2022-09-16T13:18:07;6.32;;;1.30;;
21198;SDS011;10757;51.038;3.712;2022-09-16T13:20:49;2.42;;;0.45;;
21198;SDS011;10757;51.038;3.712;2022-09-16T13:23:25;2.35;;;0.50;;
21198;SDS011;10757;51.038;3.712;2022-09-16T13:25:59;2.83;;;0.77;;
21198;SDS011;10757;51.038;3.712;2022-09-16T13:31:17;3.95;;;0.65;;
21198;SDS011;10757;51.038;3.712;2022-09-16T13:38:47;2.33;;;0.40;;
21198;SDS011;10757;51.038;3.712;2022-09-16T13:41:34;2.90;;;0.68;;
21198;SDS011;10757;51.038;3.712;2022-09-16T13:46:55;4.45;;;0.63;;
21198;SDS011;10757;51.038;3.712;2022-09-16T13:49:34;4.00;;;0.70;;
21198;SDS011;10757;51.038;3.712;2022-09-16T13:52:11;3.45;;;0.60;;
21198;SDS011;10757;51.038;3.712;2022-09-16T13:54:41;4.30;;;0.80;;
21198;SDS011;10757;51.038;3.712;2022-09-16T13:57:25;7.90;;;1.00;;
21198;SDS011;10757;51.038;3.712;2022-09-16T14:00:25;9.75;;;1.02;;
21198;SDS011;10757;51.038;3.712;2022-09-16T14:08:34;4.13;;;0.60;;
21198;SDS011;10757;51.038;3.712;2022-09-16T14:11:22;4.63;;;1.00;;
21198;SDS011;10757;51.038;3.712;2022-09-16T14:14:03;3.63;;;0.88;;
21198;SDS011;10757;51.038;3.712;2022-09-16T14:16:38;2.88;;;0.60;;
21198;SDS011;10757;51.038;3.712;2022-09-16T14:24:39;2.10;;;0.43;;
21198;SDS011;10757;51.038;3.712;2022-09-16T14:30:22;4.38;;;0.70;;
21198;SDS011;10757;51.038;3.712;2022-09-16T14:32:47;5.93;;;0.90;;
21198;SDS011;10757;51.038;3.712;2022-09-16T14:35:17;8.18;;;1.20;;
21198;SDS011;10757;51.038;3.712;2022-09-16T14:37:50;6.75;;;1.00;;
21198;SDS011;10757;51.038;3.712;2022-09-16T14:40:27;6.40;;;1.27;;
21198;SDS011;10757;51.038;3.712;2022-09-16T14:42:55;3.05;;;0.85;;
21198;SDS011;10757;51.038;3.712;2022-09-16T14:45:30;3.40;;;0.68;;
21198;SDS011;10757;51.038;3.712;2022-09-16T14:47:57;6.50;;;1.98;;
21198;SDS011;10757;51.038;3.712;2022-09-16T14:50:27;7.05;;;1.00;;
21198;SDS011;10757;51.038;3.712;2022-09-16T14:53:03;3.42;;;0.73;;
21198;SDS011;10757;51.038;3.712;2022-09-16T14:55:32;6.82;;;0.68;;
21198;SDS011;10757;51.038;3.712;2022-09-16T14:58:05;4.70;;;0.82;;
21198;SDS011;10757;51.038;3.712;2022-09-16T15:00:40;3.58;;;0.70;;
21198;SDS011;10757;51.038;3.712;2022-09-16T15:03:29;6.18;;;1.10;;
21198;SDS011;10757;51.038;3.712;2022-09-16T15:05:57;9.48;;;1.88;;
21198;SDS011;10757;51.038;3.712;2022-09-16T15:08:46;5.60;;;1.00;;
21198;SDS011;10757;51.038;3.712;2022-09-16T15:11:26;4.80;;;1.30;;
21198;SDS011;10757;51.038;3.712;2022-09-16T15:13:56;7.63;;;1.13;;
21198;SDS011;10757;51.038;3.712;2022-09-16T15:16:23;4.03;;;0.77;;
21198;SDS011;10757;51.038;3.712;2022-09-16T15:18:58;5.88;;;0.73;;
21198;SDS011;10757;51.038;3.712;2022-09-16T15:21:27;5.80;;;1.05;;
21198;SDS011;10757;51.038;3.712;2022-09-16T15:23:55;6.60;;;1.50;;
21198;SDS011;10757;51.038;3.712;2022-09-16T15:26:24;4.80;;;1.08;;
21198;SDS011;10757;51.038;3.712;2022-09-16T15:29:03;5.93;;;1.17;;
21198;SDS011;10757;51.038;3.712;2022-09-16T15:31:33;5.05;;;0.80;;
21198;SDS011;10757;51.038;3.712;2022-09-16T15:34:20;7.90;;;0.90;;
21198;SDS011;10757;51.038;3.712;2022-09-16T15:36:52;5.40;;;0.90;;
21198;SDS011;10757;51.038;3.712;2022-09-16T15:42:01;6.55;;;1.40;;
21198;SDS011;10757;51.038;3.712;2022-09-16T15:44:58;3.85;;;0.80;;
21198;SDS011;10757;51.038;3.712;2022-09-16T15:47:27;7.07;;;1.20;;
21198;SDS011;10757;51.038;3.712;2022-09-16T15:52:34;3.75;;;0.73;;
21198;SDS011;10757;51.038;3.712;2022-09-16T15:55:49;5.55;;;1.42;;
21198;SDS011;10757;51.038;3.712;2022-09-16T15:58:36;7.00;;;1.60;;
21198;SDS011;10757;51.038;3.712;2022-09-16T16:03:44;11.45;;;2.63;;
21198;SDS011;10757;51.038;3.712;2022-09-16T16:06:14;6.45;;;1.42;;
21198;SDS011;10757;51.038;3.712;2022-09-16T16:11:17;9.23;;;1.90;;
21198;SDS011;10757;51.038;3.712;2022-09-16T16:13:47;12.80;;;1.85;;
21198;SDS011;10757;51.038;3.712;2022-09-16T16:16:15;10.93;;;2.08;;
21198;SDS011;10757;51.038;3.712;2022-09-16T16:18:43;7.68;;;1.45;;
21198;SDS011;10757;51.038;3.712;2022-09-16T16:21:11;5.45;;;1.00;;
21198;SDS011;10757;51.038;3.712;2022-09-16T16:23:39;12.13;;;1.65;;
21198;SDS011;10757;51.038;3.712;2022-09-16T16:28:35;10.63;;;1.48;;
21198;SDS011;10757;51.038;3.712;2022-09-16T16:33:40;7.10;;;1.20;;
21198;SDS011;10757;51.038;3.712;2022-09-16T16:36:10;5.82;;;1.17;;
21198;SDS011;10757;51.038;3.712;2022-09-16T16:38:36;7.00;;;1.52;;
21198;SDS011;10757;51.038;3.712;2022-09-16T16:41:04;9.32;;;1.58;;
21198;SDS011;10757;51.038;3.712;2022-09-16T16:43:31;7.45;;;1.70;;
21198;SDS011;10757;51.038;3.712;2022-09-16T16:45:56;7.15;;;1.15;;
21198;SDS011;10757;51.038;3.712;2022-09-16T16:48:23;4.38;;;0.82;;
21198;SDS011;10757;51.038;3.712;2022-09-16T16:50:58;5.88;;;1.00;;
21198;SDS011;10757;51.038;3.712;2022-09-16T16:53:29;11.05;;;1.27;;
21198;SDS011;10757;51.038;3.712;2022-09-16T16:56:05;7.07;;;1.20;;
21198;SDS011;10757;51.038;3.712;2022-09-16T16:58:33;7.85;;;1.42;;
21198;SDS011;10757;51.038;3.712;2022-09-16T17:03:33;9.20;;;1.25;;
21198;SDS011;10757;51.038;3.712;2022-09-16T17:05:58;9.77;;;1.50;;
21198;SDS011;10757;51.038;3.712;2022-09-16T17:08:25;8.00;;;1.48;;
21198;SDS011;10757;51.038;3.712;2022-09-16T17:13:53;8.95;;;1.63;;
21198;SDS011;10757;51.038;3.712;2022-09-16T17:16:23;6.97;;;1.33;;
21198;SDS011;10757;51.038;3.712;2022-09-16T17:18:50;6.85;;;1.65;;
21198;SDS011;10757;51.038;3.712;2022-09-16T17:21:23;10.75;;;1.63;;
21198;SDS011;10757;51.038;3.712;2022-09-16T17:23:55;10.32;;;1.73;;
21198;SDS011;10757;51.038;3.712;2022-09-16T17:26:21;9.65;;;1.70;;
21198;SDS011;10757;51.038;3.712;2022-09-16T17:28:48;7.90;;;1.30;;
21198;SDS011;10757;51.038;3.712;2022-09-16T17:31:19;6.93;;;1.05;;
21198;SDS011;10757;51.038;3.712;2022-09-16T17:34:04;10.90;;;2.40;;
21198;SDS011;10757;51.038;3.712;2022-09-16T17:36:34;5.38;;;1.35;;
21198;SDS011;10757;51.038;3.712;2022-09-16T17:41:32;11.20;;;2.40;;
21198;SDS011;10757;51.038;3.712;2022-09-16T17:44:02;6.10;;;1.20;;
21198;SDS011;10757;51.038;3.712;2022-09-16T17:46:30;8.43;;;1.00;;
21198;SDS011;10757;51.038;3.712;2022-09-16T17:49:06;5.55;;;1.20;;
21198;SDS011;10757;51.038;3.712;2022-09-16T17:51:37;4.13;;;0.77;;
21198;SDS011;10757;51.038;3.712;2022-09-16T17:54:03;4.32;;;0.90;;
21198;SDS011;10757;51.038;3.712;2022-09-16T17:56:30;6.43;;;1.40;;
21198;SDS011;10757;51.038;3.712;2022-09-16T17:58:55;7.90;;;1.25;;
21198;SDS011;10757;51.038;3.712;2022-09-16T18:04:04;7.68;;;1.50;;
21198;SDS011;10757;51.038;3.712;2022-09-16T18:06:37;7.05;;;0.90;;
21198;SDS011;10757;51.038;3.712;2022-09-16T18:09:07;9.88;;;1.52;;
21198;SDS011;10757;51.038;3.712;2022-09-16T18:11:37;2.78;;;0.75;;
21198;SDS011;10757;51.038;3.712;2022-09-16T18:14:10;6.32;;;1.30;;
21198;SDS011;10757;51.038;3.712;2022-09-16T18:16:40;4.00;;;1.02;;
21198;SDS011;10757;51.038;3.712;2022-09-16T18:19:06;12.70;;;2.30;;
21198;SDS011;10757;51.038;3.712;2022-09-16T18:21:35;10.25;;;2.05;;
21198;SDS011;10757;51.038;3.712;2022-09-16T18:24:13;5.00;;;1.60;;
21198;SDS011;10757;51.038;3.712;2022-09-16T18:26:45;4.15;;;0.75;;
21198;SDS011;10757;51.038;3.712;2022-09-16T18:29:14;7.10;;;1.38;;
21198;SDS011;10757;51.038;3.712;2022-09-16T18:31:42;5.97;;;1.38;;
21198;SDS011;10757;51.038;3.712;2022-09-16T18:34:11;6.28;;;1.20;;
21198;SDS011;10757;51.038;3.712;2022-09-16T18:36:38;8.65;;;2.10;;
21198;SDS011;10757;51.038;3.712;2022-09-16T18:39:14;8.07;;;2.83;;
21198;SDS011;10757;51.038;3.712;2022-09-16T18:41:50;9.60;;;2.67;;
21198;SDS011;10757;51.038;3.712;2022-09-16T18:44:20;10.50;;;3.55;;
21198;SDS011;10757;51.038;3.712;2022-09-16T18:46:50;9.32;;;3.15;;
21198;SDS011;10757;51.038;3.712;2022-09-16T18:49:20;7.78;;;2.40;;
21198;SDS011;10757;51.038;3.712;2022-09-16T18:51:48;7.38;;;1.45;;